Aviation Digital Data Service (ADDS)

Output produced by METARs form (2112 UTC 16 February 2019)
found at http://www.aviationweather.gov/metar/data/
 
Forecast for: UKLI (IVANO-FRANKIVSK , UA)
Text: TAF UKLI 161704Z 1618/1703 VRB01MPS 6000 SCT033 TX02/1618Z TNM00/1624Z
Forecast period: 1800 UTC 16 February 2019 to 0300 UTC 17 February 2019
Forecast type: FROM: standard forecast or significant change
Winds: variable direction winds at 2 MPH (2 knots; 1.0 m/s)
Visibility: 4 miles (6 km)
Ceiling: at least 12,000 feet AGL
Clouds: scattered clouds at 3300 feet AGL
Weather: no significant weather forecast for this period
Text: TEMPO 1618/1624 1000 BR
Forecast period: 1800 UTC 16 February 2019 to 0000 UTC 17 February 2019
Forecast type: TEMPORARY: The following changes expected for less than half the time period
Visibility: 0.62 miles (1.00 km)
Ceiling: unknown
Clouds: missing
Weather: BR  (mist)